createdAt,value
2022-11-13T00:02:22.493Z,6.10
2022-11-13T00:05:42.870Z,6.10
2022-11-13T00:09:03.374Z,6.00
2022-11-13T00:12:23.866Z,5.90
2022-11-13T00:15:44.264Z,5.80
2022-11-13T00:19:04.580Z,5.80
2022-11-13T00:22:25.011Z,5.80
2022-11-13T00:25:45.288Z,5.70
2022-11-13T00:29:05.581Z,5.70
2022-11-13T00:32:26.663Z,5.70
2022-11-13T00:35:47.152Z,5.80
2022-11-13T00:39:07.507Z,5.80
2022-11-13T00:42:28.027Z,5.70
2022-11-13T00:45:48.239Z,5.60
2022-11-13T00:49:08.681Z,5.70
2022-11-13T00:52:28.942Z,5.70
2022-11-13T00:55:49.432Z,5.60
2022-11-13T00:59:09.957Z,5.50
2022-11-13T01:02:30.148Z,5.60
2022-11-13T01:05:50.507Z,5.50
2022-11-13T01:09:10.859Z,5.50
2022-11-13T01:12:31.436Z,5.40
2022-11-13T01:15:51.808Z,5.30
2022-11-13T01:19:12.279Z,5.30
2022-11-13T01:22:32.735Z,5.40
2022-11-13T01:25:53.082Z,5.30
2022-11-13T01:29:13.377Z,5.40
2022-11-13T01:32:34.414Z,5.40
2022-11-13T01:36:04.254Z,5.30
2022-11-13T01:39:24.456Z,5.30
2022-11-13T01:42:45.011Z,5.30
2022-11-13T01:46:29.047Z,5.40
2022-11-13T01:49:52.982Z,5.40
2022-11-13T01:53:13.464Z,5.40
2022-11-13T01:56:33.810Z,5.40
2022-11-13T02:00:00.431Z,5.50
2022-11-13T02:03:20.945Z,5.50
2022-11-13T02:06:45.786Z,5.40
2022-11-13T02:10:06.812Z,5.50
2022-11-13T02:13:27.303Z,5.50
2022-11-13T02:16:50.990Z,5.50
2022-11-13T02:20:11.386Z,5.60
2022-11-13T02:24:00.823Z,5.60
2022-11-13T02:27:25.981Z,5.60
2022-11-13T02:30:46.101Z,5.70
2022-11-13T02:34:06.399Z,5.70
2022-11-13T02:37:26.691Z,5.70
2022-11-13T02:40:47.203Z,5.70
2022-11-13T02:44:08.662Z,5.70
2022-11-13T02:47:29.132Z,5.70
2022-11-13T02:50:50.134Z,5.70
2022-11-13T02:54:15.564Z,5.60
2022-11-13T02:57:36.942Z,5.70
2022-11-13T03:00:57.420Z,5.80
2022-11-13T03:04:17.734Z,5.70
2022-11-13T03:07:38.014Z,5.70
2022-11-13T03:10:58.922Z,5.60
2022-11-13T03:14:19.284Z,5.60
2022-11-13T03:17:39.739Z,5.70
2022-11-13T03:21:07.067Z,5.60
2022-11-13T03:24:27.519Z,5.50
2022-11-13T03:27:47.879Z,5.60
2022-11-13T03:31:08.740Z,5.50
2022-11-13T03:34:28.973Z,5.40
2022-11-13T03:37:49.406Z,5.30
2022-11-13T03:41:09.848Z,5.40
2022-11-13T03:44:30.317Z,5.40
2022-11-13T03:47:50.678Z,5.40
2022-11-13T03:51:11.026Z,5.30
2022-11-13T03:54:31.231Z,5.10
2022-11-13T03:57:51.635Z,5.10
2022-11-13T04:01:12.022Z,5.00
2022-11-13T04:04:32.481Z,5.00
2022-11-13T04:07:52.751Z,5.10
2022-11-13T04:11:13.478Z,5.00
2022-11-13T04:14:33.855Z,4.90
2022-11-13T04:17:54.348Z,4.80
2022-11-13T04:21:14.595Z,4.80
2022-11-13T04:24:35.007Z,4.80
2022-11-13T04:27:55.383Z,4.80
2022-11-13T04:31:15.632Z,4.70
2022-11-13T04:34:36.079Z,4.70
2022-11-13T04:37:56.442Z,4.60
2022-11-13T04:41:35.239Z,4.60
2022-11-13T04:44:55.648Z,4.60
2022-11-13T04:48:16.068Z,4.60
2022-11-13T04:51:36.504Z,4.50
2022-11-13T04:54:57.168Z,4.50
2022-11-13T04:58:17.334Z,4.40
2022-11-13T05:01:38.356Z,4.30
2022-11-13T05:05:04.450Z,4.20
2022-11-13T05:08:25.761Z,4.10
2022-11-13T05:11:46.610Z,4.00
2022-11-13T05:15:07.619Z,4.00
2022-11-13T05:18:28.175Z,3.90
2022-11-13T05:21:48.432Z,3.90
2022-11-13T05:25:08.936Z,3.90
2022-11-13T05:28:30.005Z,4.00
2022-11-13T05:31:50.466Z,4.00
2022-11-13T05:35:10.911Z,4.00
2022-11-13T05:38:31.864Z,3.90
2022-11-13T05:41:52.291Z,4.00
2022-11-13T05:45:12.730Z,4.10
2022-11-13T05:48:34.099Z,4.00
2022-11-13T05:51:54.762Z,3.90
2022-11-13T05:55:15.134Z,3.70
2022-11-13T05:58:35.989Z,3.70
2022-11-13T06:01:56.097Z,3.70
2022-11-13T06:05:16.488Z,3.80
2022-11-13T06:08:37.867Z,3.80
2022-11-13T06:11:58.072Z,3.70
2022-11-13T06:15:18.569Z,3.60
2022-11-13T06:18:40.264Z,3.60
2022-11-13T06:22:00.427Z,3.60
2022-11-13T06:25:20.840Z,3.60
2022-11-13T06:28:41.703Z,3.50
2022-11-13T06:32:02.185Z,3.50
2022-11-13T06:35:22.691Z,3.50
2022-11-13T06:38:44.160Z,3.50
2022-11-13T06:42:04.310Z,3.60
2022-11-13T06:45:24.579Z,3.60
2022-11-13T06:48:45.454Z,3.60
2022-11-13T06:52:06.496Z,3.70
2022-11-13T06:55:26.679Z,3.70
2022-11-13T06:58:47.272Z,3.80
2022-11-13T07:02:10.843Z,3.90
2022-11-13T07:05:31.324Z,3.80
2022-11-13T07:08:52.492Z,3.80
2022-11-13T07:12:12.952Z,3.90
2022-11-13T07:15:37.644Z,3.80
2022-11-13T07:18:57.896Z,3.80
2022-11-13T07:22:18.406Z,3.70
2022-11-13T07:25:38.783Z,3.70
2022-11-13T07:28:59.352Z,3.70
2022-11-13T07:32:19.959Z,3.80
2022-11-13T07:35:40.335Z,3.90
2022-11-13T07:39:00.783Z,4.00
2022-11-13T07:42:21.034Z,4.10
2022-11-13T07:45:41.558Z,4.30
2022-11-13T07:49:02.037Z,4.40
2022-11-13T07:52:22.506Z,4.40
2022-11-13T07:55:42.766Z,4.70
2022-11-13T07:59:03.084Z,4.90
2022-11-13T08:02:26.471Z,5.00
2022-11-13T08:05:47.355Z,5.10
2022-11-13T08:09:07.873Z,5.20
2022-11-13T08:12:28.225Z,5.30
2022-11-13T08:15:48.742Z,5.40
2022-11-13T08:19:09.312Z,5.50
2022-11-13T08:22:30.708Z,5.50
2022-11-13T08:25:51.240Z,5.60
2022-11-13T08:29:11.460Z,5.70
2022-11-13T08:32:31.903Z,5.80
2022-11-13T08:35:54.195Z,5.90
2022-11-13T08:39:14.560Z,6.00
2022-11-13T08:42:34.611Z,6.10
2022-11-13T08:45:55.712Z,6.20
2022-11-13T08:49:15.891Z,6.30
2022-11-13T08:52:36.759Z,6.40
2022-11-13T08:56:02.063Z,6.60
2022-11-13T08:59:23.595Z,6.70
2022-11-13T09:02:44.157Z,6.90
2022-11-13T09:06:08.626Z,7.20
2022-11-13T09:09:29.125Z,7.30
2022-11-13T09:12:49.590Z,7.60
2022-11-13T09:16:10.021Z,7.80
2022-11-13T09:19:30.581Z,8.20
2022-11-13T09:22:57.144Z,8.50
2022-11-13T09:26:17.912Z,9.00
2022-11-13T09:29:38.166Z,9.50
2022-11-13T09:33:00.642Z,9.90
2022-11-13T09:36:20.943Z,10.10
2022-11-13T09:39:41.839Z,10.50
2022-11-13T09:43:06.275Z,10.60
2022-11-13T09:46:57.677Z,10.90
2022-11-13T09:50:20.266Z,11.00
2022-11-13T09:53:41.567Z,11.20
2022-11-13T09:57:29.031Z,11.10
2022-11-13T10:00:49.387Z,11.20
2022-11-13T10:04:14.976Z,11.10
2022-11-13T10:07:53.826Z,11.00
2022-11-13T10:11:38.251Z,10.90
2022-11-13T10:15:03.314Z,10.80
2022-11-13T10:18:29.338Z,10.70
2022-11-13T10:22:26.555Z,10.60
2022-11-13T10:25:44.996Z,10.80
2022-11-13T10:29:14.855Z,10.80
2022-11-13T10:32:35.085Z,10.90
2022-11-13T10:36:14.983Z,11.00
2022-11-13T10:39:45.115Z,11.30
2022-11-13T10:43:18.751Z,11.50
2022-11-13T10:46:39.275Z,11.60
2022-11-13T10:50:11.142Z,11.80
2022-11-13T10:53:42.538Z,12.00
2022-11-13T10:57:06.203Z,12.10
2022-11-13T11:00:30.310Z,12.30
2022-11-13T11:03:51.292Z,13.00
2022-11-13T11:07:21.553Z,13.10
2022-11-13T11:11:02.212Z,12.70
2022-11-13T11:14:41.229Z,13.10
2022-11-13T11:18:05.775Z,13.40
2022-11-13T11:21:30.790Z,13.60
2022-11-13T11:25:37.137Z,13.60
2022-11-13T11:29:15.924Z,14.00
2022-11-13T11:32:46.415Z,14.60
2022-11-13T11:36:33.680Z,14.70
2022-11-13T11:40:26.891Z,15.30
2022-11-13T11:44:02.028Z,16.50
2022-11-13T11:47:22.365Z,16.80
2022-11-13T11:51:15.527Z,17.80
2022-11-13T11:55:20.052Z,18.40
2022-11-13T11:59:06.718Z,18.40
2022-11-13T12:02:48.689Z,19.20
2022-11-13T12:06:17.743Z,19.90
2022-11-13T12:09:50.174Z,19.60
2022-11-13T12:13:13.224Z,17.70
2022-11-13T12:16:51.540Z,16.80
2022-11-13T12:20:38.014Z,16.50
2022-11-13T12:24:14.887Z,17.60
2022-11-13T12:27:59.625Z,17.10
2022-11-13T12:31:38.974Z,17.30
2022-11-13T12:35:19.338Z,17.20
2022-11-13T12:38:49.934Z,18.10
2022-11-13T12:42:34.441Z,17.90
2022-11-13T12:45:57.576Z,17.60
2022-11-13T12:49:24.679Z,17.30
2022-11-13T12:52:44.884Z,17.20
2022-11-13T12:56:05.490Z,16.30
2022-11-13T12:59:40.043Z,15.80
2022-11-13T13:03:12.092Z,16.10
2022-11-13T13:07:14.256Z,16.10
2022-11-13T13:11:06.751Z,16.20
2022-11-13T13:14:50.413Z,16.20
2022-11-13T13:18:23.728Z,16.40
2022-11-13T13:21:44.743Z,16.60
2022-11-13T13:25:34.042Z,16.00
2022-11-13T13:29:19.184Z,15.80
2022-11-13T13:32:54.959Z,15.20
2022-11-13T13:36:29.696Z,14.90
2022-11-13T13:40:08.103Z,14.80
2022-11-13T13:44:09.394Z,14.80
2022-11-13T13:47:40.496Z,14.90
2022-11-13T13:51:01.998Z,14.60
2022-11-13T13:54:28.432Z,14.60
2022-11-13T13:57:48.993Z,14.60
2022-11-13T14:01:19.490Z,15.00
2022-11-13T14:04:58.498Z,14.70
2022-11-13T14:08:21.682Z,14.40
2022-11-13T14:11:41.763Z,14.30
2022-11-13T14:15:05.103Z,14.10
2022-11-13T14:18:27.235Z,14.10
2022-11-13T14:21:51.387Z,14.00
2022-11-13T14:25:25.478Z,13.90
2022-11-13T14:29:01.348Z,13.60
2022-11-13T14:32:25.391Z,13.50
2022-11-13T14:35:52.864Z,13.30
2022-11-13T14:39:21.641Z,13.10
2022-11-13T14:42:50.022Z,13.00
2022-11-13T14:46:26.132Z,12.80
2022-11-13T14:49:46.151Z,12.70
2022-11-13T14:53:08.959Z,12.70
2022-11-13T14:56:38.270Z,12.70
2022-11-13T15:00:15.207Z,12.60
2022-11-13T15:03:35.319Z,12.40
2022-11-13T15:07:03.843Z,12.40
2022-11-13T15:10:27.656Z,12.20
2022-11-13T15:13:50.060Z,12.20
2022-11-13T15:17:17.816Z,12.10
2022-11-13T15:20:38.352Z,12.00
2022-11-13T15:24:00.970Z,11.80
2022-11-13T15:27:21.354Z,11.70
2022-11-13T15:30:41.873Z,11.60
2022-11-13T15:34:02.836Z,11.50
2022-11-13T15:37:22.988Z,11.40
2022-11-13T15:40:43.357Z,11.30
2022-11-13T15:44:10.648Z,11.20
2022-11-13T15:47:33.313Z,11.00
2022-11-13T15:50:53.425Z,10.70
2022-11-13T15:54:18.951Z,10.50
2022-11-13T15:57:39.128Z,10.50
2022-11-13T16:00:59.810Z,10.30
2022-11-13T16:04:20.236Z,10.20
2022-11-13T16:07:42.264Z,10.10
2022-11-13T16:11:02.588Z,10.10
2022-11-13T16:14:25.102Z,10.00
2022-11-13T16:17:49.319Z,9.80
2022-11-13T16:21:13.754Z,9.90
2022-11-13T16:24:33.919Z,9.60
2022-11-13T16:27:54.479Z,9.50
2022-11-13T16:31:15.086Z,9.40
2022-11-13T16:34:35.719Z,9.30
2022-11-13T16:37:56.275Z,9.30
2022-11-13T16:41:17.166Z,9.30
2022-11-13T16:44:37.822Z,9.20
2022-11-13T16:47:58.212Z,9.20
2022-11-13T16:51:18.660Z,9.20
2022-11-13T16:54:38.996Z,9.10
2022-11-13T16:57:59.466Z,9.10
2022-11-13T17:01:22.357Z,9.20
2022-11-13T17:04:43.850Z,9.10
2022-11-13T17:08:05.960Z,8.80
2022-11-13T17:11:28.864Z,8.60
2022-11-13T17:14:49.192Z,8.40
2022-11-13T17:18:12.480Z,8.40
2022-11-13T17:21:33.069Z,8.40
2022-11-13T17:24:53.363Z,8.40
2022-11-13T17:28:13.912Z,8.30
2022-11-13T17:31:34.488Z,8.30
2022-11-13T17:34:54.915Z,8.30
2022-11-13T17:38:15.571Z,8.30
2022-11-13T17:41:37.241Z,8.30
2022-11-13T17:44:57.348Z,8.20
2022-11-13T17:48:18.659Z,8.10
2022-11-13T17:51:38.733Z,8.00
2022-11-13T17:54:59.153Z,7.90
2022-11-13T17:58:19.589Z,7.80
2022-11-13T18:01:40.182Z,7.70
2022-11-13T18:05:01.340Z,7.70
2022-11-13T18:08:21.735Z,7.60
2022-11-13T18:11:42.217Z,7.40
2022-11-13T18:15:03.311Z,7.30
2022-11-13T18:18:23.758Z,7.30
2022-11-13T18:21:44.144Z,7.30
2022-11-13T18:25:05.219Z,7.30
2022-11-13T18:28:25.658Z,7.30
2022-11-13T18:31:46.022Z,7.20
2022-11-13T18:35:07.066Z,7.40
2022-11-13T18:38:28.520Z,7.40
2022-11-13T18:41:50.412Z,7.40
2022-11-13T18:45:11.641Z,7.40
2022-11-13T18:48:36.330Z,7.40
2022-11-13T18:51:56.617Z,7.50
2022-11-13T18:55:17.070Z,7.50
2022-11-13T18:58:39.056Z,7.20
2022-11-13T19:01:59.726Z,7.00
2022-11-13T19:05:19.984Z,6.90
2022-11-13T19:08:41.279Z,6.80
2022-11-13T19:12:01.646Z,6.80
2022-11-13T19:15:22.088Z,6.80
2022-11-13T19:18:44.602Z,6.80
2022-11-13T19:22:04.792Z,6.90
2022-11-13T19:25:26.211Z,6.80
2022-11-13T19:28:48.468Z,6.80
2022-11-13T19:32:09.022Z,6.70
2022-11-13T19:35:29.596Z,6.70
2022-11-13T19:38:50.612Z,6.80
2022-11-13T19:42:10.964Z,6.90
2022-11-13T19:45:31.904Z,6.90
2022-11-13T19:48:52.383Z,6.90
2022-11-13T19:52:12.856Z,6.70
2022-11-13T19:55:34.711Z,6.90
2022-11-13T19:58:55.462Z,6.70
2022-11-13T20:02:15.780Z,6.70
2022-11-13T20:05:40.886Z,6.70
2022-11-13T20:09:02.386Z,6.70
2022-11-13T20:12:23.779Z,6.60
2022-11-13T20:15:44.183Z,6.50
2022-11-13T20:19:04.740Z,6.50
2022-11-13T20:22:25.451Z,6.40
2022-11-13T20:25:54.151Z,6.50
2022-11-13T20:29:14.343Z,6.20
2022-11-13T20:32:38.855Z,6.20
2022-11-13T20:35:59.169Z,6.00
2022-11-13T20:39:19.269Z,5.90
2022-11-13T20:42:39.777Z,5.90
2022-11-13T20:46:08.899Z,5.80
2022-11-13T20:49:29.103Z,5.80
2022-11-13T20:52:49.723Z,5.70
2022-11-13T20:56:10.439Z,5.80
2022-11-13T20:59:30.541Z,5.90
2022-11-13T21:02:51.765Z,5.90
2022-11-13T21:06:16.611Z,5.80
2022-11-13T21:09:36.798Z,5.90
2022-11-13T21:12:57.357Z,5.90
2022-11-13T21:16:18.169Z,5.80
2022-11-13T21:19:38.686Z,5.80
2022-11-13T21:22:58.992Z,5.90
2022-11-13T21:26:19.464Z,5.80
2022-11-13T21:29:39.950Z,5.80
2022-11-13T21:33:00.895Z,5.80
2022-11-13T21:36:23.645Z,5.80
2022-11-13T21:39:43.851Z,5.70
2022-11-13T21:43:04.382Z,5.60
2022-11-13T21:46:30.778Z,5.60
2022-11-13T21:49:51.315Z,5.60
2022-11-13T21:53:12.086Z,5.60
2022-11-13T21:56:35.153Z,5.60
2022-11-13T21:59:55.529Z,5.50
2022-11-13T22:03:15.979Z,5.60
2022-11-13T22:06:36.674Z,5.60
2022-11-13T22:09:56.795Z,6.90
2022-11-13T22:13:17.239Z,5.50
2022-11-13T22:16:40.258Z,5.50
2022-11-13T22:20:00.651Z,5.60
2022-11-13T22:23:21.876Z,5.60
2022-11-13T22:26:50.422Z,5.50
2022-11-13T22:30:11.023Z,5.50
2022-11-13T22:33:33.260Z,5.30
2022-11-13T22:36:53.450Z,5.20
2022-11-13T22:40:14.825Z,5.20
2022-11-13T22:43:37.316Z,5.10
2022-11-13T22:46:58.124Z,5.10
2022-11-13T22:50:18.639Z,5.20
2022-11-13T22:53:40.176Z,5.20
2022-11-13T22:57:03.941Z,5.20
2022-11-13T23:00:24.237Z,5.10
2022-11-13T23:03:46.582Z,5.00
2022-11-13T23:07:06.898Z,5.10
2022-11-13T23:10:27.247Z,5.10
2022-11-13T23:13:50.394Z,5.00
2022-11-13T23:17:10.782Z,4.90
2022-11-13T23:20:31.174Z,4.90
2022-11-13T23:23:52.111Z,5.00
2022-11-13T23:27:12.927Z,5.00
2022-11-13T23:30:33.327Z,4.90
2022-11-13T23:33:53.616Z,4.90
2022-11-13T23:37:13.969Z,4.90
2022-11-13T23:40:34.407Z,4.80
2022-11-13T23:44:08.202Z,4.80
2022-11-13T23:47:28.990Z,4.60
2022-11-13T23:50:49.320Z,4.70
2022-11-13T23:54:09.768Z,4.60
2022-11-13T23:57:30.130Z,4.60
